Aérodrome :
LOGIN :

S'inscrire | Disclaimer

   EN    FR    IT 

 










Légende :    VFR   VFR Marginal   IFR   IFR Intensif   IFR Très Intensif
Visi : 
Plafond : 
>= 8 km
>= 3000ft
5 à 8 km
1000 à 3000 ft
1500m à 5 km
500 à 1000 ft
800 à 1500m
200 à 500 ft
< 800m
< 200 ft
Symboles :   Orages  Brouillard  Fortes neiges  Fortes précipitations  Vent > 20 kt
SIGMETs :   Divers  Orages  Givrage  Turbulence  Onde Orograph.  Cendres Volcan.







- Altitude de l'aérodrome : 7 ft
- Code IATA : XHE
- Voir les cartes d'approche


LFTH - Hyeres

DERNIER METAR :
  • 190400Z AUTO 31005KT CAVOK 08/M00 Q1014 NOSIG

METARs EXPIRÉS :
  • 190330Z AUTO 31007KT CAVOK 08/00 Q1015 NOSIG
  • 190300Z AUTO 30007KT CAVOK 09/01 Q1015 NOSIG
  • 190230Z AUTO 31008KT CAVOK 07/01 Q1015 NOSIG
  • 190200Z AUTO 31006KT CAVOK 07/01 Q1015 NOSIG

TAF TAF LFTH
Valide du 19 à 03h jusqu'au 20 à 03h UTC


190200Z 1903/2003 33004KT CAVOK
Pas de NOTAMs connus pour ce terrain.



MET'MAP, la Météo Aéronautique d'un coup d'oeil ! - Copyright ORBIFLY Décembre 2007 - Disclaimer

ORBIFLY MET'MAP TEAM :

Programmation & Développement : Alexandra Zaïnal
Conception & Développement : Baudouin d'Aumeries
Co-Programmation & Développement : Marc-Olivier Méhu
Soutien technique & logistique : Manuel Goepfert

Contact : metmap@orbifly.com




SOURCES & CREDITS :

   NOAA